createdAt,value
2022-12-29T00:03:54.977Z,28.65
2022-12-29T00:07:59.724Z,29.70
2022-12-29T00:12:03.576Z,28.95
2022-12-29T00:16:08.406Z,29.80
2022-12-29T00:20:29.245Z,28.23
2022-12-29T00:24:52.158Z,27.90
2022-12-29T00:29:13.293Z,27.38
2022-12-29T00:33:37.472Z,27.45
2022-12-29T00:38:07.328Z,27.05
2022-12-29T00:42:39.621Z,29.58
2022-12-29T00:46:44.089Z,27.92
2022-12-29T00:54:48.529Z,28.08
2022-12-29T00:58:50.978Z,28.25
2022-12-29T01:02:53.398Z,29.10
2022-12-29T01:06:55.986Z,28.02
2022-12-29T01:11:06.422Z,28.38
2022-12-29T01:15:11.115Z,29.63
2022-12-29T01:19:14.516Z,28.02
2022-12-29T01:23:17.173Z,29.98
2022-12-29T01:27:21.107Z,29.05
2022-12-29T01:31:23.344Z,28.17
2022-12-29T01:35:26.860Z,27.75
2022-12-29T01:39:29.016Z,30.45
2022-12-29T01:43:40.620Z,27.38
2022-12-29T01:47:45.229Z,25.73
2022-12-29T01:51:59.099Z,25.42
2022-12-29T01:56:07.666Z,25.83
2022-12-29T02:00:13.441Z,26.30
2022-12-29T02:04:16.693Z,31.85
2022-12-29T02:08:24.832Z,39.57
2022-12-29T02:12:27.148Z,31.42
2022-12-29T02:17:08.195Z,33.40
2022-12-29T02:21:56.334Z,40.15
2022-12-29T02:26:32.680Z,42.08
2022-12-29T02:30:38.402Z,49.28
2022-12-29T02:34:49.058Z,38.22
2022-12-29T02:39:26.645Z,36.13
2022-12-29T02:43:40.835Z,35.33
2022-12-29T02:47:54.196Z,42.35
2022-12-29T02:52:23.271Z,35.38
2022-12-29T02:56:26.244Z,34.67
2022-12-29T03:00:29.890Z,33.90
2022-12-29T03:05:16.224Z,41.53
2022-12-29T03:09:51.906Z,42.20
2022-12-29T03:14:25.493Z,40.70
2022-12-29T03:18:42.998Z,41.05
2022-12-29T03:22:49.340Z,43.28
2022-12-29T03:27:00.438Z,31.33
2022-12-29T03:31:09.183Z,30.00
2022-12-29T03:35:15.490Z,29.20
2022-12-29T03:39:21.765Z,29.75
2022-12-29T03:43:24.844Z,27.60
2022-12-29T03:47:27.117Z,29.67
2022-12-29T03:51:29.489Z,29.73
2022-12-29T03:55:32.742Z,30.92
2022-12-29T03:59:36.413Z,28.43
2022-12-29T04:03:38.720Z,28.38
2022-12-29T04:07:41.041Z,30.08
2022-12-29T04:11:43.608Z,28.30
2022-12-29T04:15:46.413Z,29.13
2022-12-29T04:19:49.804Z,29.08
2022-12-29T04:23:52.550Z,27.73
2022-12-29T04:27:54.884Z,27.75
2022-12-29T04:32:15.442Z,21.38
2022-12-29T04:36:29.743Z,23.10
2022-12-29T04:40:32.620Z,22.42
2022-12-29T04:44:37.619Z,21.55
2022-12-29T04:49:05.710Z,22.55
2022-12-29T04:53:28.349Z,23.70
2022-12-29T04:57:30.875Z,22.92
2022-12-29T05:01:35.357Z,22.58
2022-12-29T05:05:37.795Z,22.90
2022-12-29T05:09:40.403Z,25.92
2022-12-29T05:13:42.634Z,21.67
2022-12-29T05:17:45.002Z,22.65
2022-12-29T05:21:47.738Z,22.63
2022-12-29T05:25:49.949Z,22.00
2022-12-29T05:30:20.498Z,20.75
2022-12-29T05:34:23.587Z,17.80
2022-12-29T05:38:26.067Z,16.90
2022-12-29T05:42:28.397Z,17.45
2022-12-29T05:46:49.314Z,17.05
2022-12-29T05:50:55.952Z,16.08
2022-12-29T05:55:08.218Z,13.45
2022-12-29T05:59:12.269Z,12.45
2022-12-29T06:03:15.372Z,11.43
2022-12-29T06:07:19.415Z,11.77
2022-12-29T06:11:23.587Z,12.13
2022-12-29T06:20:01.593Z,12.80
2022-12-29T06:24:04.391Z,13.23
2022-12-29T06:28:06.988Z,13.57
2022-12-29T06:32:10.792Z,13.38
2022-12-29T06:36:17.747Z,13.32
2022-12-29T06:40:21.526Z,16.20
2022-12-29T06:44:42.925Z,16.90
2022-12-29T06:48:45.814Z,19.05
2022-12-29T06:52:48.036Z,19.40
2022-12-29T06:56:50.139Z,21.23
2022-12-29T07:00:52.824Z,20.52
2022-12-29T07:04:55.103Z,20.35
2022-12-29T07:08:58.679Z,18.75
2022-12-29T07:13:00.965Z,18.23
2022-12-29T07:17:06.512Z,17.42
2022-12-29T07:21:08.941Z,18.13
2022-12-29T07:25:11.300Z,24.25
2022-12-29T07:29:13.464Z,31.85
2022-12-29T07:33:15.646Z,20.65
2022-12-29T07:37:17.970Z,18.38
2022-12-29T07:41:20.326Z,19.45
2022-12-29T07:45:22.605Z,19.85
2022-12-29T07:49:38.348Z,19.70
2022-12-29T07:53:40.498Z,17.10
2022-12-29T07:57:42.734Z,17.42
2022-12-29T08:01:45.008Z,17.23
2022-12-29T08:05:47.401Z,15.57
2022-12-29T08:09:49.568Z,16.58
2022-12-29T08:13:52.010Z,15.60
2022-12-29T08:17:54.273Z,15.90
2022-12-29T08:21:57.814Z,15.20
2022-12-29T08:26:01.585Z,15.30
2022-12-29T08:30:04.936Z,16.15
2022-12-29T08:34:10.353Z,14.95
2022-12-29T08:38:13.263Z,15.00
2022-12-29T08:42:15.727Z,14.50
2022-12-29T08:46:18.331Z,15.63
2022-12-29T08:50:21.771Z,13.98
2022-12-29T08:54:24.744Z,15.63
2022-12-29T08:58:28.180Z,16.90
2022-12-29T09:02:30.645Z,16.73
2022-12-29T09:06:39.680Z,15.25
2022-12-29T09:10:42.339Z,16.02
2022-12-29T09:14:45.348Z,15.80
2022-12-29T09:18:47.745Z,17.67
2022-12-29T09:22:50.759Z,15.20
2022-12-29T09:26:53.439Z,13.77
2022-12-29T09:30:56.454Z,13.32
2022-12-29T09:34:58.794Z,13.20
2022-12-29T09:39:00.989Z,12.07
2022-12-29T09:43:28.689Z,13.55
2022-12-29T09:47:33.158Z,11.80
2022-12-29T09:51:39.331Z,11.90
2022-12-29T09:55:52.176Z,11.18
2022-12-29T10:04:18.504Z,10.10
2022-12-29T10:09:28.553Z,9.35
2022-12-29T10:14:22.759Z,9.43
2022-12-29T10:19:18.998Z,9.52
2022-12-29T10:23:53.258Z,9.45
2022-12-29T10:28:10.314Z,9.05
2022-12-29T10:32:35.841Z,8.95
2022-12-29T10:36:50.103Z,9.32
2022-12-29T10:41:27.824Z,8.40
2022-12-29T10:45:41.074Z,8.50
2022-12-29T10:49:56.525Z,8.50
2022-12-29T10:58:50.235Z,7.22
2022-12-29T11:03:47.468Z,7.90
2022-12-29T11:12:43.157Z,6.97
2022-12-29T11:17:07.187Z,6.43
2022-12-29T11:21:47.379Z,5.60
2022-12-29T11:26:22.182Z,6.03
2022-12-29T11:30:45.371Z,5.38
2022-12-29T11:34:54.400Z,5.43
2022-12-29T11:39:15.324Z,5.68
2022-12-29T11:43:55.061Z,5.88
2022-12-29T11:48:32.169Z,5.25
2022-12-29T11:52:40.844Z,5.32
2022-12-29T11:56:56.075Z,3.17
2022-12-29T12:01:30.917Z,3.40
2022-12-29T12:06:08.263Z,3.75
2022-12-29T12:10:32.791Z,2.78
2022-12-29T12:15:07.056Z,2.83
2022-12-29T12:19:59.489Z,2.75
2022-12-29T12:24:42.856Z,2.88
2022-12-29T12:29:16.105Z,2.25
2022-12-29T12:33:48.933Z,2.53
2022-12-29T12:43:14.910Z,2.30
2022-12-29T12:47:54.101Z,1.95
2022-12-29T12:52:35.499Z,2.35
2022-12-29T12:57:21.048Z,1.90
2022-12-29T13:02:05.351Z,1.83
2022-12-29T13:06:51.221Z,2.60
2022-12-29T13:11:27.943Z,1.80
2022-12-29T13:15:57.316Z,1.80
2022-12-29T13:20:27.513Z,1.92
2022-12-29T13:25:08.853Z,1.67
2022-12-29T13:29:33.269Z,1.92
2022-12-29T13:34:05.452Z,1.77
2022-12-29T13:43:23.643Z,2.90
2022-12-29T13:47:47.801Z,2.78
2022-12-29T13:52:02.396Z,1.88
2022-12-29T13:56:32.829Z,2.83
2022-12-29T14:01:04.341Z,2.70
2022-12-29T14:05:23.965Z,2.65
2022-12-29T14:09:59.040Z,1.60
2022-12-29T14:14:28.062Z,2.20
2022-12-29T14:18:35.762Z,2.00
2022-12-29T14:23:17.228Z,3.13
2022-12-29T14:27:23.381Z,3.42
2022-12-29T14:31:36.516Z,3.70
2022-12-29T14:35:49.790Z,3.63
2022-12-29T14:40:24.448Z,3.78
2022-12-29T14:49:04.326Z,5.05
2022-12-29T14:58:01.258Z,1.65
2022-12-29T15:02:26.370Z,1.45
2022-12-29T15:06:41.623Z,1.40
2022-12-29T15:11:01.750Z,1.67
2022-12-29T15:15:22.690Z,3.08
2022-12-29T15:19:30.810Z,1.83
2022-12-29T15:23:37.308Z,1.42
2022-12-29T15:27:46.944Z,1.20
2022-12-29T15:31:50.178Z,1.63
2022-12-29T15:40:00.597Z,1.50
2022-12-29T15:44:10.894Z,1.13
2022-12-29T15:48:22.658Z,1.20
2022-12-29T15:52:34.611Z,1.20
2022-12-29T15:56:36.931Z,1.13
2022-12-29T16:00:39.395Z,1.25
2022-12-29T16:05:09.335Z,1.30
2022-12-29T16:09:17.227Z,1.30
2022-12-29T16:13:19.304Z,1.70
2022-12-29T16:17:28.014Z,2.70
2022-12-29T16:21:35.283Z,2.15
2022-12-29T16:25:38.556Z,1.50
2022-12-29T16:29:42.056Z,2.00
2022-12-29T16:33:51.132Z,2.53
2022-12-29T16:38:15.244Z,2.30
2022-12-29T16:42:39.489Z,2.40
2022-12-29T16:47:06.148Z,3.35
2022-12-29T16:51:38.734Z,2.30
2022-12-29T16:55:58.535Z,1.90
2022-12-29T17:00:04.820Z,1.38
2022-12-29T17:04:11.755Z,1.38
2022-12-29T17:08:24.223Z,1.40
2022-12-29T17:12:31.141Z,1.52
2022-12-29T17:16:33.625Z,2.10
2022-12-29T17:20:36.229Z,2.30
2022-12-29T17:24:38.643Z,1.90
2022-12-29T17:28:41.639Z,2.42
2022-12-29T17:32:49.929Z,2.40
2022-12-29T17:36:52.160Z,3.30
2022-12-29T17:40:54.661Z,4.80
2022-12-29T17:44:56.962Z,3.25
2022-12-29T17:48:59.188Z,3.10
2022-12-29T17:53:07.643Z,3.10
2022-12-29T17:57:13.724Z,2.20
2022-12-29T18:01:21.889Z,4.40
2022-12-29T18:05:27.391Z,6.05
2022-12-29T18:09:29.623Z,5.45
2022-12-29T18:13:45.579Z,3.03
2022-12-29T18:17:49.362Z,2.85
2022-12-29T18:21:51.486Z,2.20
2022-12-29T18:26:01.820Z,3.72
2022-12-29T18:30:04.696Z,3.45
2022-12-29T18:34:15.615Z,4.45
2022-12-29T18:38:18.520Z,3.50
2022-12-29T18:42:24.552Z,13.07
2022-12-29T18:46:27.031Z,14.32
2022-12-29T18:50:29.367Z,4.72
2022-12-29T18:54:33.851Z,10.48
2022-12-29T19:02:38.599Z,5.30
2022-12-29T19:06:41.262Z,5.63
2022-12-29T19:10:44.618Z,4.93
2022-12-29T19:14:47.057Z,4.85
2022-12-29T19:19:07.863Z,3.90
2022-12-29T19:23:13.662Z,3.70
2022-12-29T19:27:16.267Z,4.82
2022-12-29T19:31:18.530Z,4.95
2022-12-29T19:35:22.991Z,8.40
2022-12-29T19:39:25.579Z,13.82
2022-12-29T19:43:27.991Z,8.02
2022-12-29T19:47:32.072Z,5.50
2022-12-29T19:51:34.732Z,3.42
2022-12-29T19:55:37.317Z,3.33
2022-12-29T19:59:40.885Z,4.57
2022-12-29T20:03:43.466Z,9.40
2022-12-29T20:07:46.149Z,6.63
2022-12-29T20:11:48.436Z,5.90
2022-12-29T20:15:50.721Z,6.82
2022-12-29T20:19:52.970Z,5.72
2022-12-29T20:23:56.713Z,5.22
2022-12-29T20:27:58.933Z,5.43
2022-12-29T20:32:01.260Z,5.07
2022-12-29T20:36:10.780Z,6.68
2022-12-29T20:40:13.217Z,7.22
2022-12-29T20:44:15.416Z,6.97
2022-12-29T20:48:17.823Z,6.40
2022-12-29T20:52:20.130Z,6.90
2022-12-29T20:56:25.879Z,6.10
2022-12-29T21:00:30.850Z,6.88
2022-12-29T21:05:12.825Z,6.40
2022-12-29T21:09:03.280Z,7.75
2022-12-29T21:13:07.676Z,8.32
2022-12-29T21:17:09.931Z,8.15
2022-12-29T21:21:18.331Z,9.02
2022-12-29T21:25:20.484Z,9.52
2022-12-29T21:29:22.693Z,8.18
2022-12-29T21:33:24.982Z,19.52
2022-12-29T21:37:27.112Z,9.75
2022-12-29T21:41:34.866Z,8.05
2022-12-29T21:45:43.921Z,7.90
2022-12-29T21:49:54.948Z,8.95
2022-12-29T21:54:21.259Z,8.13
2022-12-29T21:58:42.044Z,8.13
2022-12-29T22:03:02.883Z,8.35
2022-12-29T22:07:25.854Z,8.43
2022-12-29T22:11:46.891Z,9.35
2022-12-29T22:15:49.042Z,8.80
2022-12-29T22:19:51.342Z,7.65
2022-12-29T22:23:53.547Z,7.70
2022-12-29T22:27:59.436Z,8.50
2022-12-29T22:32:02.221Z,8.35
2022-12-29T22:36:04.713Z,7.65
2022-12-29T22:40:09.997Z,9.55
2022-12-29T22:44:12.156Z,8.57
2022-12-29T22:48:14.473Z,7.60
2022-12-29T22:52:16.916Z,9.57
2022-12-29T22:56:19.237Z,9.15
2022-12-29T23:00:21.411Z,8.00
2022-12-29T23:05:01.693Z,7.50
2022-12-29T23:08:47.472Z,6.85
2022-12-29T23:12:49.891Z,6.93
2022-12-29T23:16:52.106Z,6.93
2022-12-29T23:20:54.419Z,6.53
2022-12-29T23:24:56.684Z,7.63
2022-12-29T23:29:00.769Z,8.00
2022-12-29T23:33:03.001Z,8.32
2022-12-29T23:37:05.302Z,7.57
2022-12-29T23:41:08.543Z,9.65
2022-12-29T23:45:11.632Z,7.50
2022-12-29T23:49:13.909Z,7.60
2022-12-29T23:53:16.230Z,8.38
2022-12-29T23:57:18.512Z,8.35
